Terminal Aerodrome Forecast
Issued by NWS Newport/Morehead City, NC

Home | Current Version | Previous Version | Graphics & Text | Print | Product List | Glossary On
Versions: 1 2 3 4 5 6 7 8 9 10 11 12 13 14
000
FTUS42 KMHX 270533
TAFEWN
TAF
KEWN 270533Z 2706/2806 VRB03KT P6SM SKC
     FM271600 24007KT P6SM FEW250
     FM280000 21007KT P6SM BKN100=

USA.gov is the U.S. government's official web portal to all federal, state and local government web resources and services.